Terminal Aerodrome Forecast
Issued by NWS Greer, SC

Home | Current Version | Previous Version | Text Only | Print | Product List | Glossary On
Versions: 1 2 3 4 5 6 7 8 9 10 11 12 13 14 15 16 17 18 19 20 21 22 23 24 25 26 27 28 29 30 31 32
000
FTUS42 KGSP 241120
TAFAVL
TAF
KAVL 241120Z 2412/2512 33016G25KT P6SM FEW060 SCT250 WS020/32050KT
     FM241500 33018G31KT P6SM SCT250
     FM241900 34014G22KT P6SM FEW250
     FM242300 34009KT P6SM FEW250
     FM250300 34005KT P6SM SKC=

USA.gov is the U.S. government's official web portal to all federal, state and local government web resources and services.